Pagina principale
METAR-TAF:

METAR-TAF

Aeroporti :

Aeroporto di Rivolto

Udine, Italia

latitudine: 45-59N, longitudine: 013-02E, altezza: 51 m

Osservazione

Il bollettino è stato emesso 39 minuti fa, alle 06:55 UTC
Temperature 3°C
Umidità 93%
Pressione 1028 hPa
Visibilità 10 km o più
Poco nuvoloso ad un'altezza di 8000 ft

METAR: LIPI 160655Z /////KT 9999 FEW080 03/02 Q1028 RMK SCT VIS MIN 9999 WIND THR06 02003KT WIND THR24 01005KT BLU

Ora: 08:34 (07:34 UTC)

Previsione

Il bollettino è stato emesso 2 ore e 34 minuti fa, alle 05:00 UTC
Previsione valida dal 16 alle 06 UTC al 16 alle 15 UTC
Vento 6 kt da nord/nord-est
Visibilità 10 km o più
Nubi sparse ad un'altezza di 5000 ft

TAF: LIPI 160500Z 1606/1615 02006KT 9999 SCT050

Osservazioni e previsioni meteorologiche di più di 4000 aeroporti (messaggi METAR e TAF).

Le stazioni disponibili sono rappresentate dai dischi gialli e rossi sulla carta.

Puntare il mouse per vedere il nome della stazione.

Clicca sopra per visualizzare le osservazioni e previsioni meteorologiche.

Per cambiare la mappa : fare clic sui pulsanti verdi con una croce nera per ingrandire, il pulsante verde con un trattino per diminuire, o sulla freccia verde per le mappe adiacenti.


METAR-TAF: